sensor_id;sensor_type;location;lat;lon;timestamp;temperature;humidity
42841;DHT22;28491;46.898;7.660;2023-03-23T00:01:27;10.00;1.00
42841;DHT22;28491;46.898;7.660;2023-03-23T00:03:56;9.80;1.00
42841;DHT22;28491;46.898;7.660;2023-03-23T00:06:27;9.90;1.00
42841;DHT22;28491;46.898;7.660;2023-03-23T00:08:54;10.00;1.00
42841;DHT22;28491;46.898;7.660;2023-03-23T00:11:26;9.90;1.00
42841;DHT22;28491;46.898;7.660;2023-03-23T00:13:55;9.70;1.00
42841;DHT22;28491;46.898;7.660;2023-03-23T00:16:24;9.70;1.00
42841;DHT22;28491;46.898;7.660;2023-03-23T00:19:02;9.70;1.00
42841;DHT22;28491;46.898;7.660;2023-03-23T00:21:31;9.60;1.00
42841;DHT22;28491;46.898;7.660;2023-03-23T00:24:08;9.70;1.00
42841;DHT22;28491;46.898;7.660;2023-03-23T00:26:36;9.70;1.00
42841;DHT22;28491;46.898;7.660;2023-03-23T00:29:05;9.60;1.00
42841;DHT22;28491;46.898;7.660;2023-03-23T00:31:32;9.60;1.00
42841;DHT22;28491;46.898;7.660;2023-03-23T00:34:01;9.40;1.00
42841;DHT22;28491;46.898;7.660;2023-03-23T00:36:27;9.60;1.00
42841;DHT22;28491;46.898;7.660;2023-03-23T00:38:53;9.70;1.00
42841;DHT22;28491;46.898;7.660;2023-03-23T00:41:19;9.60;1.00
42841;DHT22;28491;46.898;7.660;2023-03-23T00:43:45;9.60;1.00
42841;DHT22;28491;46.898;7.660;2023-03-23T00:46:11;9.70;1.00
42841;DHT22;28491;46.898;7.660;2023-03-23T00:48:37;9.40;1.00
42841;DHT22;28491;46.898;7.660;2023-03-23T00:51:10;9.50;1.00
42841;DHT22;28491;46.898;7.660;2023-03-23T00:53:35;9.50;1.00
42841;DHT22;28491;46.898;7.660;2023-03-23T00:56:01;9.10;1.00
42841;DHT22;28491;46.898;7.660;2023-03-23T00:58:26;9.10;1.00
42841;DHT22;28491;46.898;7.660;2023-03-23T01:00:52;9.10;1.00
42841;DHT22;28491;46.898;7.660;2023-03-23T01:03:17;8.90;1.00
42841;DHT22;28491;46.898;7.660;2023-03-23T01:05:44;9.00;1.00
42841;DHT22;28491;46.898;7.660;2023-03-23T01:08:13;9.20;1.00
42841;DHT22;28491;46.898;7.660;2023-03-23T01:10:39;9.30;1.00
42841;DHT22;28491;46.898;7.660;2023-03-23T01:13:06;9.40;1.00
42841;DHT22;28491;46.898;7.660;2023-03-23T01:15:32;9.50;1.00
42841;DHT22;28491;46.898;7.660;2023-03-23T01:17:57;9.50;1.00
42841;DHT22;28491;46.898;7.660;2023-03-23T01:20:24;9.50;1.00
42841;DHT22;28491;46.898;7.660;2023-03-23T01:22:52;9.40;1.00
42841;DHT22;28491;46.898;7.660;2023-03-23T01:25:18;9.30;1.00
42841;DHT22;28491;46.898;7.660;2023-03-23T01:27:44;9.10;1.00
42841;DHT22;28491;46.898;7.660;2023-03-23T01:30:11;9.20;1.00
42841;DHT22;28491;46.898;7.660;2023-03-23T01:32:37;9.20;1.00
42841;DHT22;28491;46.898;7.660;2023-03-23T01:35:03;9.20;1.00
42841;DHT22;28491;46.898;7.660;2023-03-23T01:37:30;9.10;1.00
42841;DHT22;28491;46.898;7.660;2023-03-23T01:39:56;9.10;1.00
42841;DHT22;28491;46.898;7.660;2023-03-23T01:42:23;9.10;1.00
42841;DHT22;28491;46.898;7.660;2023-03-23T01:47:15;9.30;1.00
42841;DHT22;28491;46.898;7.660;2023-03-23T01:49:46;9.60;1.00
42841;DHT22;28491;46.898;7.660;2023-03-23T01:52:23;9.60;1.00
42841;DHT22;28491;46.898;7.660;2023-03-23T01:54:53;9.50;1.00
42841;DHT22;28491;46.898;7.660;2023-03-23T01:57:21;9.50;1.00
42841;DHT22;28491;46.898;7.660;2023-03-23T01:59:51;9.40;1.00
42841;DHT22;28491;46.898;7.660;2023-03-23T02:02:19;9.40;1.00
42841;DHT22;28491;46.898;7.660;2023-03-23T02:04:46;9.50;1.00
42841;DHT22;28491;46.898;7.660;2023-03-23T02:07:12;9.60;1.00
42841;DHT22;28491;46.898;7.660;2023-03-23T02:09:39;9.60;1.00
42841;DHT22;28491;46.898;7.660;2023-03-23T02:12:05;9.60;1.00
42841;DHT22;28491;46.898;7.660;2023-03-23T02:14:31;9.60;1.00
42841;DHT22;28491;46.898;7.660;2023-03-23T02:17:22;9.60;1.00
42841;DHT22;28491;46.898;7.660;2023-03-23T02:20:01;9.60;1.00
42841;DHT22;28491;46.898;7.660;2023-03-23T02:23:01;9.50;1.00
42841;DHT22;28491;46.898;7.660;2023-03-23T02:33:52;9.60;1.00
42841;DHT22;28491;46.898;7.660;2023-03-23T02:36:40;9.60;1.00
42841;DHT22;28491;46.898;7.660;2023-03-23T02:39:09;9.70;1.00
42841;DHT22;28491;46.898;7.660;2023-03-23T02:41:45;9.70;1.00
42841;DHT22;28491;46.898;7.660;2023-03-23T02:44:13;9.60;1.00
42841;DHT22;28491;46.898;7.660;2023-03-23T02:46:41;9.50;1.00
42841;DHT22;28491;46.898;7.660;2023-03-23T02:49:09;9.50;1.00
42841;DHT22;28491;46.898;7.660;2023-03-23T02:51:37;9.60;1.00
42841;DHT22;28491;46.898;7.660;2023-03-23T02:54:04;9.60;1.00
42841;DHT22;28491;46.898;7.660;2023-03-23T02:56:31;9.70;1.00
42841;DHT22;28491;46.898;7.660;2023-03-23T02:58:58;9.50;1.00
42841;DHT22;28491;46.898;7.660;2023-03-23T03:03:58;9.60;1.00
42841;DHT22;28491;46.898;7.660;2023-03-23T03:11:49;9.40;1.00
42841;DHT22;28491;46.898;7.660;2023-03-23T03:14:22;9.40;1.00
42841;DHT22;28491;46.898;7.660;2023-03-23T03:17:02;9.40;1.00
42841;DHT22;28491;46.898;7.660;2023-03-23T03:19:41;9.50;1.00
42841;DHT22;28491;46.898;7.660;2023-03-23T03:22:08;9.50;1.00
42841;DHT22;28491;46.898;7.660;2023-03-23T03:24:34;9.60;1.00
42841;DHT22;28491;46.898;7.660;2023-03-23T03:27:04;9.40;1.00
42841;DHT22;28491;46.898;7.660;2023-03-23T03:29:34;9.40;1.00
42841;DHT22;28491;46.898;7.660;2023-03-23T03:32:03;9.50;1.00
42841;DHT22;28491;46.898;7.660;2023-03-23T03:34:32;9.40;1.00
42841;DHT22;28491;46.898;7.660;2023-03-23T03:36:58;9.40;1.00
42841;DHT22;28491;46.898;7.660;2023-03-23T03:39:25;9.40;1.00
42841;DHT22;28491;46.898;7.660;2023-03-23T03:41:50;9.50;1.00
42841;DHT22;28491;46.898;7.660;2023-03-23T03:44:16;9.60;1.00
42841;DHT22;28491;46.898;7.660;2023-03-23T03:46:41;9.60;1.00
42841;DHT22;28491;46.898;7.660;2023-03-23T03:49:09;9.50;1.00
42841;DHT22;28491;46.898;7.660;2023-03-23T03:51:37;9.30;1.00
42841;DHT22;28491;46.898;7.660;2023-03-23T03:54:02;9.40;1.00
42841;DHT22;28491;46.898;7.660;2023-03-23T03:56:28;9.60;1.00
42841;DHT22;28491;46.898;7.660;2023-03-23T03:58:54;9.60;1.00
42841;DHT22;28491;46.898;7.660;2023-03-23T04:01:21;9.50;1.00
42841;DHT22;28491;46.898;7.660;2023-03-23T04:03:48;9.70;1.00
42841;DHT22;28491;46.898;7.660;2023-03-23T04:06:14;9.60;1.00
42841;DHT22;28491;46.898;7.660;2023-03-23T04:08:40;9.70;1.00
42841;DHT22;28491;46.898;7.660;2023-03-23T04:11:08;9.60;1.00
42841;DHT22;28491;46.898;7.660;2023-03-23T04:13:34;9.70;1.00
42841;DHT22;28491;46.898;7.660;2023-03-23T04:16:00;9.70;1.00
42841;DHT22;28491;46.898;7.660;2023-03-23T04:18:25;9.90;1.00
42841;DHT22;28491;46.898;7.660;2023-03-23T04:20:51;9.90;1.00
42841;DHT22;28491;46.898;7.660;2023-03-23T04:23:19;9.80;1.00
42841;DHT22;28491;46.898;7.660;2023-03-23T04:25:47;9.70;1.00
42841;DHT22;28491;46.898;7.660;2023-03-23T04:28:14;9.60;1.00
42841;DHT22;28491;46.898;7.660;2023-03-23T04:30:42;9.70;1.00
42841;DHT22;28491;46.898;7.660;2023-03-23T04:33:09;9.70;1.00
42841;DHT22;28491;46.898;7.660;2023-03-23T04:35:42;9.70;1.00
42841;DHT22;28491;46.898;7.660;2023-03-23T04:38:12;9.70;1.00
42841;DHT22;28491;46.898;7.660;2023-03-23T04:40:40;9.70;1.00
42841;DHT22;28491;46.898;7.660;2023-03-23T04:43:06;9.60;1.00
42841;DHT22;28491;46.898;7.660;2023-03-23T04:45:33;9.70;1.00
42841;DHT22;28491;46.898;7.660;2023-03-23T04:47:59;9.70;1.00
42841;DHT22;28491;46.898;7.660;2023-03-23T04:50:29;9.50;1.00
42841;DHT22;28491;46.898;7.660;2023-03-23T04:52:56;9.40;1.00
42841;DHT22;28491;46.898;7.660;2023-03-23T04:55:23;9.20;1.00
42841;DHT22;28491;46.898;7.660;2023-03-23T04:57:48;9.10;1.00
42841;DHT22;28491;46.898;7.660;2023-03-23T05:00:14;9.00;1.00
42841;DHT22;28491;46.898;7.660;2023-03-23T05:02:45;9.00;1.00
42841;DHT22;28491;46.898;7.660;2023-03-23T05:05:13;8.90;2.90
42841;DHT22;28491;46.898;7.660;2023-03-23T05:07:40;8.80;6.20
42841;DHT22;28491;46.898;7.660;2023-03-23T05:10:07;8.90;7.10
42841;DHT22;28491;46.898;7.660;2023-03-23T05:12:34;8.80;9.60
42841;DHT22;28491;46.898;7.660;2023-03-23T05:14:59;8.90;11.40
42841;DHT22;28491;46.898;7.660;2023-03-23T05:17:25;8.90;7.50
42841;DHT22;28491;46.898;7.660;2023-03-23T05:19:51;8.90;9.10
42841;DHT22;28491;46.898;7.660;2023-03-23T05:22:18;9.00;5.40
42841;DHT22;28491;46.898;7.660;2023-03-23T05:24:47;9.10;4.70
42841;DHT22;28491;46.898;7.660;2023-03-23T05:27:12;9.10;6.60
42841;DHT22;28491;46.898;7.660;2023-03-23T05:29:40;9.10;5.60
42841;DHT22;28491;46.898;7.660;2023-03-23T05:32:07;9.20;1.00
42841;DHT22;28491;46.898;7.660;2023-03-23T05:34:34;9.40;1.00
42841;DHT22;28491;46.898;7.660;2023-03-23T05:37:00;9.40;1.00
42841;DHT22;28491;46.898;7.660;2023-03-23T05:39:27;9.40;1.00
42841;DHT22;28491;46.898;7.660;2023-03-23T05:41:53;9.30;1.00
42841;DHT22;28491;46.898;7.660;2023-03-23T05:44:19;9.30;1.00
42841;DHT22;28491;46.898;7.660;2023-03-23T05:46:45;9.40;1.00
42841;DHT22;28491;46.898;7.660;2023-03-23T05:49:11;9.20;1.00
42841;DHT22;28491;46.898;7.660;2023-03-23T05:51:37;9.10;3.00
42841;DHT22;28491;46.898;7.660;2023-03-23T05:54:02;9.00;4.70
42841;DHT22;28491;46.898;7.660;2023-03-23T05:56:29;8.80;9.70
42841;DHT22;28491;46.898;7.660;2023-03-23T05:58:56;8.80;13.90
42841;DHT22;28491;46.898;7.660;2023-03-23T06:01:21;8.80;15.30
42841;DHT22;28491;46.898;7.660;2023-03-23T06:03:48;8.90;14.30
42841;DHT22;28491;46.898;7.660;2023-03-23T06:06:16;9.00;13.60
42841;DHT22;28491;46.898;7.660;2023-03-23T06:08:43;9.10;7.00
42841;DHT22;28491;46.898;7.660;2023-03-23T06:11:09;9.20;6.80
42841;DHT22;28491;46.898;7.660;2023-03-23T06:13:35;9.20;3.90
42841;DHT22;28491;46.898;7.660;2023-03-23T06:16:01;9.20;10.50
42841;DHT22;28491;46.898;7.660;2023-03-23T06:18:27;9.10;9.70
42841;DHT22;28491;46.898;7.660;2023-03-23T06:20:53;9.10;12.30
42841;DHT22;28491;46.898;7.660;2023-03-23T06:23:19;9.20;13.20
42841;DHT22;28491;46.898;7.660;2023-03-23T06:25:45;9.40;7.20
42841;DHT22;28491;46.898;7.660;2023-03-23T06:28:11;9.40;9.00
42841;DHT22;28491;46.898;7.660;2023-03-23T06:30:36;9.50;10.00
42841;DHT22;28491;46.898;7.660;2023-03-23T06:33:02;9.70;7.20
42841;DHT22;28491;46.898;7.660;2023-03-23T06:35:31;9.90;1.00
42841;DHT22;28491;46.898;7.660;2023-03-23T06:37:57;10.00;1.00
42841;DHT22;28491;46.898;7.660;2023-03-23T06:40:27;10.10;1.00
42841;DHT22;28491;46.898;7.660;2023-03-23T06:42:54;10.10;1.00
42841;DHT22;28491;46.898;7.660;2023-03-23T06:45:19;10.10;1.00
42841;DHT22;28491;46.898;7.660;2023-03-23T06:47:46;10.00;1.00
42841;DHT22;28491;46.898;7.660;2023-03-23T06:50:15;10.20;1.00
42841;DHT22;28491;46.898;7.660;2023-03-23T06:52:41;10.20;1.00
42841;DHT22;28491;46.898;7.660;2023-03-23T06:55:10;10.20;1.00
42841;DHT22;28491;46.898;7.660;2023-03-23T06:57:36;10.40;1.00
42841;DHT22;28491;46.898;7.660;2023-03-23T07:00:02;10.40;1.00
42841;DHT22;28491;46.898;7.660;2023-03-23T07:02:30;10.60;1.00
42841;DHT22;28491;46.898;7.660;2023-03-23T07:04:55;10.70;1.00
42841;DHT22;28491;46.898;7.660;2023-03-23T07:07:22;10.80;1.00
42841;DHT22;28491;46.898;7.660;2023-03-23T07:09:47;10.90;1.00
42841;DHT22;28491;46.898;7.660;2023-03-23T07:12:13;10.90;1.00
42841;DHT22;28491;46.898;7.660;2023-03-23T07:14:39;10.90;1.00
42841;DHT22;28491;46.898;7.660;2023-03-23T07:17:05;10.90;1.00
42841;DHT22;28491;46.898;7.660;2023-03-23T07:19:31;10.90;1.00
42841;DHT22;28491;46.898;7.660;2023-03-23T07:21:57;10.90;1.00
42841;DHT22;28491;46.898;7.660;2023-03-23T07:24:22;10.90;1.00
42841;DHT22;28491;46.898;7.660;2023-03-23T07:26:48;10.90;1.00
42841;DHT22;28491;46.898;7.660;2023-03-23T07:29:13;10.90;1.00
42841;DHT22;28491;46.898;7.660;2023-03-23T07:31:39;11.00;1.00
42841;DHT22;28491;46.898;7.660;2023-03-23T07:34:04;11.10;1.00
42841;DHT22;28491;46.898;7.660;2023-03-23T07:36:31;11.10;1.00
42841;DHT22;28491;46.898;7.660;2023-03-23T07:38:56;11.30;1.00
42841;DHT22;28491;46.898;7.660;2023-03-23T07:41:23;11.30;1.00
42841;DHT22;28491;46.898;7.660;2023-03-23T07:43:48;11.30;1.00
42841;DHT22;28491;46.898;7.660;2023-03-23T07:46:14;11.30;1.00
42841;DHT22;28491;46.898;7.660;2023-03-23T07:48:40;11.30;1.00
42841;DHT22;28491;46.898;7.660;2023-03-23T07:51:06;11.40;1.00
42841;DHT22;28491;46.898;7.660;2023-03-23T07:53:33;11.40;1.00
42841;DHT22;28491;46.898;7.660;2023-03-23T07:55:59;11.40;1.00
42841;DHT22;28491;46.898;7.660;2023-03-23T07:58:25;11.60;1.00
42841;DHT22;28491;46.898;7.660;2023-03-23T08:00:52;11.60;1.00
42841;DHT22;28491;46.898;7.660;2023-03-23T08:03:18;11.80;1.00
42841;DHT22;28491;46.898;7.660;2023-03-23T08:05:44;12.00;1.00
42841;DHT22;28491;46.898;7.660;2023-03-23T08:08:10;12.10;1.00
42841;DHT22;28491;46.898;7.660;2023-03-23T08:10:36;12.10;1.00
42841;DHT22;28491;46.898;7.660;2023-03-23T08:13:02;12.20;1.00
42841;DHT22;28491;46.898;7.660;2023-03-23T08:15:28;12.20;1.00
42841;DHT22;28491;46.898;7.660;2023-03-23T08:17:54;12.20;1.00
42841;DHT22;28491;46.898;7.660;2023-03-23T08:20:21;12.20;1.00
42841;DHT22;28491;46.898;7.660;2023-03-23T08:22:54;12.20;1.00
42841;DHT22;28491;46.898;7.660;2023-03-23T08:25:21;12.30;1.00
42841;DHT22;28491;46.898;7.660;2023-03-23T08:27:47;12.40;1.00
42841;DHT22;28491;46.898;7.660;2023-03-23T08:30:15;12.40;1.00
42841;DHT22;28491;46.898;7.660;2023-03-23T08:32:42;12.60;1.00
42841;DHT22;28491;46.898;7.660;2023-03-23T08:35:09;12.70;1.00
42841;DHT22;28491;46.898;7.660;2023-03-23T08:37:36;12.80;1.00
42841;DHT22;28491;46.898;7.660;2023-03-23T08:40:03;12.80;1.00
42841;DHT22;28491;46.898;7.660;2023-03-23T08:42:34;12.80;1.00
42841;DHT22;28491;46.898;7.660;2023-03-23T08:45:00;12.80;1.00
42841;DHT22;28491;46.898;7.660;2023-03-23T08:47:26;12.90;1.00
42841;DHT22;28491;46.898;7.660;2023-03-23T08:49:52;12.90;1.00
42841;DHT22;28491;46.898;7.660;2023-03-23T08:52:19;13.00;1.00
42841;DHT22;28491;46.898;7.660;2023-03-23T08:54:46;13.10;1.00
42841;DHT22;28491;46.898;7.660;2023-03-23T08:57:13;13.30;1.00
42841;DHT22;28491;46.898;7.660;2023-03-23T08:59:40;13.40;1.00
42841;DHT22;28491;46.898;7.660;2023-03-23T09:02:09;13.50;1.00
42841;DHT22;28491;46.898;7.660;2023-03-23T09:04:35;13.60;1.00
42841;DHT22;28491;46.898;7.660;2023-03-23T09:07:02;13.70;1.00
42841;DHT22;28491;46.898;7.660;2023-03-23T09:09:28;13.90;1.00
42841;DHT22;28491;46.898;7.660;2023-03-23T09:11:54;13.90;1.00
42841;DHT22;28491;46.898;7.660;2023-03-23T09:14:19;14.10;1.00
42841;DHT22;28491;46.898;7.660;2023-03-23T09:16:45;14.20;1.00
42841;DHT22;28491;46.898;7.660;2023-03-23T09:19:11;14.40;1.00
42841;DHT22;28491;46.898;7.660;2023-03-23T09:21:38;14.80;1.00
42841;DHT22;28491;46.898;7.660;2023-03-23T09:24:04;15.00;1.00
42841;DHT22;28491;46.898;7.660;2023-03-23T09:26:30;15.30;1.00
42841;DHT22;28491;46.898;7.660;2023-03-23T09:28:57;15.60;1.00
42841;DHT22;28491;46.898;7.660;2023-03-23T09:31:23;15.70;1.00
42841;DHT22;28491;46.898;7.660;2023-03-23T09:33:52;15.90;1.00
42841;DHT22;28491;46.898;7.660;2023-03-23T09:36:19;16.00;1.00
42841;DHT22;28491;46.898;7.660;2023-03-23T09:38:46;15.90;1.00
42841;DHT22;28491;46.898;7.660;2023-03-23T09:41:25;15.90;1.00
42841;DHT22;28491;46.898;7.660;2023-03-23T09:44:28;16.30;1.00
42841;DHT22;28491;46.898;7.660;2023-03-23T09:47:38;16.60;1.00
42841;DHT22;28491;46.898;7.660;2023-03-23T09:50:20;16.90;1.00
42841;DHT22;28491;46.898;7.660;2023-03-23T09:52:56;16.90;1.00
42841;DHT22;28491;46.898;7.660;2023-03-23T09:55:23;16.70;1.00
42841;DHT22;28491;46.898;7.660;2023-03-23T09:57:58;16.50;1.00
42841;DHT22;28491;46.898;7.660;2023-03-23T10:00:30;16.30;1.00
42841;DHT22;28491;46.898;7.660;2023-03-23T10:03:17;16.20;1.00
42841;DHT22;28491;46.898;7.660;2023-03-23T10:05:48;16.20;1.00
42841;DHT22;28491;46.898;7.660;2023-03-23T10:08:20;16.20;1.00
42841;DHT22;28491;46.898;7.660;2023-03-23T10:16:24;16.70;1.00
42841;DHT22;28491;46.898;7.660;2023-03-23T10:19:18;16.80;1.00
42841;DHT22;28491;46.898;7.660;2023-03-23T10:21:56;17.50;1.00
42841;DHT22;28491;46.898;7.660;2023-03-23T10:24:33;17.80;1.00
42841;DHT22;28491;46.898;7.660;2023-03-23T10:29:51;17.90;1.00
42841;DHT22;28491;46.898;7.660;2023-03-23T10:32:21;18.00;1.00
42841;DHT22;28491;46.898;7.660;2023-03-23T10:37:32;17.80;1.00
42841;DHT22;28491;46.898;7.660;2023-03-23T10:40:03;17.80;1.00
42841;DHT22;28491;46.898;7.660;2023-03-23T10:42:36;17.60;1.00
42841;DHT22;28491;46.898;7.660;2023-03-23T10:45:24;17.50;1.00
42841;DHT22;28491;46.898;7.660;2023-03-23T10:48:01;17.70;1.00
42841;DHT22;28491;46.898;7.660;2023-03-23T10:50:31;17.70;1.00
42841;DHT22;28491;46.898;7.660;2023-03-23T10:52:58;17.70;1.00
42841;DHT22;28491;46.898;7.660;2023-03-23T10:55:36;17.70;1.00
42841;DHT22;28491;46.898;7.660;2023-03-23T10:58:06;17.60;1.00
42841;DHT22;28491;46.898;7.660;2023-03-23T11:00:32;17.60;1.00
42841;DHT22;28491;46.898;7.660;2023-03-23T11:05:59;18.30;1.00
42841;DHT22;28491;46.898;7.660;2023-03-23T11:08:29;18.60;1.00
42841;DHT22;28491;46.898;7.660;2023-03-23T11:11:15;18.40;1.00
42841;DHT22;28491;46.898;7.660;2023-03-23T11:13:46;18.40;1.00
42841;DHT22;28491;46.898;7.660;2023-03-23T11:16:32;18.40;1.00
42841;DHT22;28491;46.898;7.660;2023-03-23T11:19:00;18.10;1.00
42841;DHT22;28491;46.898;7.660;2023-03-23T11:21:37;18.10;1.00
42841;DHT22;28491;46.898;7.660;2023-03-23T11:24:04;18.10;1.00
42841;DHT22;28491;46.898;7.660;2023-03-23T11:26:33;18.10;1.00
42841;DHT22;28491;46.898;7.660;2023-03-23T11:29:11;18.00;1.00
42841;DHT22;28491;46.898;7.660;2023-03-23T11:32:04;17.90;1.00
42841;DHT22;28491;46.898;7.660;2023-03-23T11:34:41;17.80;1.00
42841;DHT22;28491;46.898;7.660;2023-03-23T11:37:23;18.10;1.00
42841;DHT22;28491;46.898;7.660;2023-03-23T11:40:00;18.20;1.00
42841;DHT22;28491;46.898;7.660;2023-03-23T11:42:44;18.10;1.00
42841;DHT22;28491;46.898;7.660;2023-03-23T11:45:34;18.10;1.00
42841;DHT22;28491;46.898;7.660;2023-03-23T11:51:26;17.60;1.00
42841;DHT22;28491;46.898;7.660;2023-03-23T11:54:15;17.50;1.00
42841;DHT22;28491;46.898;7.660;2023-03-23T11:56:44;17.50;1.00
42841;DHT22;28491;46.898;7.660;2023-03-23T11:59:13;17.60;1.00
42841;DHT22;28491;46.898;7.660;2023-03-23T12:13:14;18.40;1.00
42841;DHT22;28491;46.898;7.660;2023-03-23T12:21:33;18.50;1.00
42841;DHT22;28491;46.898;7.660;2023-03-23T12:24:21;18.50;1.00
42841;DHT22;28491;46.898;7.660;2023-03-23T12:26:59;18.40;1.00
42841;DHT22;28491;46.898;7.660;2023-03-23T12:32:25;18.10;1.00
42841;DHT22;28491;46.898;7.660;2023-03-23T12:35:14;18.10;1.00
42841;DHT22;28491;46.898;7.660;2023-03-23T12:38:22;17.80;1.00
42841;DHT22;28491;46.898;7.660;2023-03-23T12:44:05;17.60;1.00
42841;DHT22;28491;46.898;7.660;2023-03-23T12:47:03;17.50;1.00
42841;DHT22;28491;46.898;7.660;2023-03-23T12:49:38;17.30;1.00
42841;DHT22;28491;46.898;7.660;2023-03-23T12:52:16;17.30;1.00
42841;DHT22;28491;46.898;7.660;2023-03-23T12:54:47;17.40;1.00
42841;DHT22;28491;46.898;7.660;2023-03-23T12:57:48;17.30;1.00
42841;DHT22;28491;46.898;7.660;2023-03-23T13:00:29;17.30;1.00
42841;DHT22;28491;46.898;7.660;2023-03-23T13:03:01;17.30;1.00
42841;DHT22;28491;46.898;7.660;2023-03-23T13:05:46;17.20;1.00
42841;DHT22;28491;46.898;7.660;2023-03-23T13:08:31;17.00;1.00
42841;DHT22;28491;46.898;7.660;2023-03-23T13:11:02;17.00;1.00
42841;DHT22;28491;46.898;7.660;2023-03-23T13:13:44;17.00;1.00
42841;DHT22;28491;46.898;7.660;2023-03-23T13:16:23;17.00;1.00
42841;DHT22;28491;46.898;7.660;2023-03-23T13:21:31;16.80;1.00
42841;DHT22;28491;46.898;7.660;2023-03-23T13:24:04;16.60;1.00
42841;DHT22;28491;46.898;7.660;2023-03-23T13:26:31;16.50;1.00
42841;DHT22;28491;46.898;7.660;2023-03-23T13:29:00;16.50;1.00
42841;DHT22;28491;46.898;7.660;2023-03-23T13:31:31;16.50;1.00
42841;DHT22;28491;46.898;7.660;2023-03-23T13:36:31;16.20;1.00
42841;DHT22;28491;46.898;7.660;2023-03-23T13:38:59;16.20;1.00
42841;DHT22;28491;46.898;7.660;2023-03-23T13:41:26;16.10;1.00
42841;DHT22;28491;46.898;7.660;2023-03-23T13:43:52;16.10;1.00
42841;DHT22;28491;46.898;7.660;2023-03-23T13:46:30;16.00;1.00
42841;DHT22;28491;46.898;7.660;2023-03-23T13:49:17;15.80;1.00
42841;DHT22;28491;46.898;7.660;2023-03-23T13:56:47;15.70;1.00
42841;DHT22;28491;46.898;7.660;2023-03-23T13:59:27;15.90;1.00
42841;DHT22;28491;46.898;7.660;2023-03-23T14:02:26;16.00;1.00
42841;DHT22;28491;46.898;7.660;2023-03-23T14:04:45;16.00;1.00
42841;DHT22;28491;46.898;7.660;2023-03-23T14:07:15;16.10;1.00
42841;DHT22;28491;46.898;7.660;2023-03-23T14:09:42;16.10;1.00
42841;DHT22;28491;46.898;7.660;2023-03-23T14:12:18;15.90;1.00
42841;DHT22;28491;46.898;7.660;2023-03-23T14:14:47;16.00;1.00
42841;DHT22;28491;46.898;7.660;2023-03-23T14:17:25;15.90;1.00
42841;DHT22;28491;46.898;7.660;2023-03-23T14:19:56;15.90;1.00
42841;DHT22;28491;46.898;7.660;2023-03-23T14:22:41;15.90;1.00
42841;DHT22;28491;46.898;7.660;2023-03-23T14:25:15;15.80;1.00
42841;DHT22;28491;46.898;7.660;2023-03-23T14:27:42;15.60;1.00
42841;DHT22;28491;46.898;7.660;2023-03-23T14:30:13;15.60;1.00
42841;DHT22;28491;46.898;7.660;2023-03-23T14:32:40;15.50;1.00
42841;DHT22;28491;46.898;7.660;2023-03-23T14:35:13;15.50;1.00
42841;DHT22;28491;46.898;7.660;2023-03-23T14:37:40;15.50;1.00
42841;DHT22;28491;46.898;7.660;2023-03-23T14:40:08;15.40;1.00
42841;DHT22;28491;46.898;7.660;2023-03-23T14:42:37;15.40;1.00
42841;DHT22;28491;46.898;7.660;2023-03-23T14:45:04;15.40;1.00
42841;DHT22;28491;46.898;7.660;2023-03-23T14:47:33;15.40;1.00
42841;DHT22;28491;46.898;7.660;2023-03-23T14:50:01;15.30;1.00
42841;DHT22;28491;46.898;7.660;2023-03-23T14:52:29;15.30;1.00
42841;DHT22;28491;46.898;7.660;2023-03-23T14:55:18;15.30;1.00
42841;DHT22;28491;46.898;7.660;2023-03-23T14:57:45;15.20;1.00
42841;DHT22;28491;46.898;7.660;2023-03-23T15:00:22;15.30;1.00
42841;DHT22;28491;46.898;7.660;2023-03-23T15:02:56;15.20;1.00
42841;DHT22;28491;46.898;7.660;2023-03-23T15:05:33;15.30;1.00
42841;DHT22;28491;46.898;7.660;2023-03-23T15:08:05;15.20;1.00
42841;DHT22;28491;46.898;7.660;2023-03-23T15:10:31;15.20;1.00
42841;DHT22;28491;46.898;7.660;2023-03-23T15:12:57;15.20;1.00
42841;DHT22;28491;46.898;7.660;2023-03-23T15:15:31;15.10;1.00
42841;DHT22;28491;46.898;7.660;2023-03-23T15:17:58;15.00;1.00
42841;DHT22;28491;46.898;7.660;2023-03-23T15:20:47;15.00;1.00
42841;DHT22;28491;46.898;7.660;2023-03-23T15:23:16;15.00;1.00
42841;DHT22;28491;46.898;7.660;2023-03-23T15:25:48;15.10;1.00
42841;DHT22;28491;46.898;7.660;2023-03-23T15:28:32;15.00;1.00
42841;DHT22;28491;46.898;7.660;2023-03-23T15:31:02;14.90;1.00
42841;DHT22;28491;46.898;7.660;2023-03-23T15:33:34;14.80;1.00
42841;DHT22;28491;46.898;7.660;2023-03-23T15:36:07;14.90;1.00
42841;DHT22;28491;46.898;7.660;2023-03-23T15:38:34;14.90;1.00
42841;DHT22;28491;46.898;7.660;2023-03-23T15:41:05;14.90;1.00
42841;DHT22;28491;46.898;7.660;2023-03-23T15:43:48;14.80;1.00
42841;DHT22;28491;46.898;7.660;2023-03-23T15:48:54;14.80;1.00
42841;DHT22;28491;46.898;7.660;2023-03-23T15:51:30;14.80;1.00
42841;DHT22;28491;46.898;7.660;2023-03-23T15:53:58;14.70;1.00
42841;DHT22;28491;46.898;7.660;2023-03-23T15:56:25;14.70;1.00
42841;DHT22;28491;46.898;7.660;2023-03-23T15:58:51;14.70;1.00
42841;DHT22;28491;46.898;7.660;2023-03-23T16:01:25;14.60;1.00
42841;DHT22;28491;46.898;7.660;2023-03-23T16:04:04;14.60;1.00
42841;DHT22;28491;46.898;7.660;2023-03-23T16:06:32;14.70;1.00
42841;DHT22;28491;46.898;7.660;2023-03-23T16:08:58;14.80;1.00
42841;DHT22;28491;46.898;7.660;2023-03-23T16:11:26;14.80;1.00
42841;DHT22;28491;46.898;7.660;2023-03-23T16:13:53;14.90;1.00
42841;DHT22;28491;46.898;7.660;2023-03-23T16:16:41;14.80;1.00
42841;DHT22;28491;46.898;7.660;2023-03-23T16:19:07;14.70;1.00
42841;DHT22;28491;46.898;7.660;2023-03-23T16:21:33;14.70;1.00
42841;DHT22;28491;46.898;7.660;2023-03-23T16:23:59;14.60;1.00
42841;DHT22;28491;46.898;7.660;2023-03-23T16:26:25;14.60;1.00
42841;DHT22;28491;46.898;7.660;2023-03-23T16:28:50;14.40;1.00
42841;DHT22;28491;46.898;7.660;2023-03-23T16:31:16;14.50;1.00
42841;DHT22;28491;46.898;7.660;2023-03-23T16:33:41;14.50;1.00
42841;DHT22;28491;46.898;7.660;2023-03-23T16:36:09;14.50;1.00
42841;DHT22;28491;46.898;7.660;2023-03-23T16:38:35;14.50;1.00
42841;DHT22;28491;46.898;7.660;2023-03-23T16:41:01;14.50;1.00
42841;DHT22;28491;46.898;7.660;2023-03-23T16:43:27;14.50;1.00
42841;DHT22;28491;46.898;7.660;2023-03-23T16:45:55;14.40;1.00
42841;DHT22;28491;46.898;7.660;2023-03-23T16:48:21;14.40;1.00
42841;DHT22;28491;46.898;7.660;2023-03-23T16:50:48;14.40;1.00
42841;DHT22;28491;46.898;7.660;2023-03-23T16:53:15;14.40;1.00
42841;DHT22;28491;46.898;7.660;2023-03-23T16:55:41;14.30;1.00
42841;DHT22;28491;46.898;7.660;2023-03-23T16:58:12;14.30;1.00
42841;DHT22;28491;46.898;7.660;2023-03-23T17:00:37;14.20;1.00
42841;DHT22;28491;46.898;7.660;2023-03-23T17:03:04;14.20;1.00
42841;DHT22;28491;46.898;7.660;2023-03-23T17:05:30;14.10;1.00
42841;DHT22;28491;46.898;7.660;2023-03-23T17:07:56;14.00;1.00
42841;DHT22;28491;46.898;7.660;2023-03-23T17:10:25;14.00;1.00
42841;DHT22;28491;46.898;7.660;2023-03-23T17:12:52;13.80;1.00
42841;DHT22;28491;46.898;7.660;2023-03-23T17:15:18;13.70;1.00
42841;DHT22;28491;46.898;7.660;2023-03-23T17:17:43;13.60;1.00
42841;DHT22;28491;46.898;7.660;2023-03-23T17:20:09;13.60;1.00
42841;DHT22;28491;46.898;7.660;2023-03-23T17:22:36;13.60;1.00